Fesco Vladimir — 5BSL2 — position and weather

sailwx.info

Track history (hours):
 
Tides and Currents Weather Stations Pressure Air Temp Water Temp Dewpoint Dewpoint Depression Visibility Wind Speed Wind Dir Waves Ship Positions

Fesco Vladimir

Last reported at 2014-Dec-19 08:29 UTC. Time now 2014-Dec-19 12:15 UTC.
Position N 52°09' E 003°41'.

Length 184 m; draft 9.1 m.

Type: Cargo ship. MMSI: 209777000.

Date/timePositionNaut miles runAvg speedWind from/ knotsBaromVisibWave heightAir tempDewpointWater temp
2014-Dec-19 08:29N 52°09' E 003°41'0 0.0
2014-Dec-19 07:32N 52°09' E 003°41'0 0.1
2014-Dec-19 06:26N 52°09' E 003°41'0 0.0
2014-Dec-19 05:23N 52°09' E 003°41'0 0.0
2014-Dec-19 00:20N 52°09' E 003°41'0 0.0
2014-Dec-18 21:05N 52°09' E 003°41'0 0.0
2014-Dec-18 15:32N 52°09' E 003°41'0 0.0
2014-Dec-18 14:23N 52°09' E 003°41'1 0.1
2014-Dec-18 07:33N 52°10' E 003°41'1111.2
2014-Dec-18 06:33N 52°20' E 003°48'1514.9
2014-Dec-18 05:33N 52°35' E 003°52'1514.9
2014-Dec-18 04:33N 52°49' E 003°57'1413.4
2014-Dec-18 03:33N 53°01' E 004°08'1313.4
2014-Dec-18 02:33N 53°10' E 004°25'1313.0
2014-Dec-18 01:33N 53°22' E 004°32'1312.8
2014-Dec-18 00:33N 53°34' E 004°39'1413.5
2014-Dec-17 23:33N 53°48' E 004°44'1414.1
2014-Dec-17 22:33N 54°01' E 004°51'1414.0
2014-Dec-17 21:33N 54°14' E 004°60'1414.3
2014-Dec-17 20:33N 54°26' E 005°12'1414.1
2014-Dec-17 19:33N 54°39' E 005°23'1413.9
2014-Dec-17 18:33N 54°51' E 005°36'1614.2
2014-Dec-17 17:25N 55°04' E 005°50'2814.2
2014-Dec-17 15:26N 55°29' E 006°15'13413.2
2014-Dec-17 05:19N 57°19' E 008°33'1412.7
2014-Dec-17 04:15N 57°27' E 008°52'5212.7
2014-Dec-17 00:10N 57°48' E 010°21'711.4
2014-Dec-16 23:33N 57°48' E 010°34'1010.3
2014-Dec-16 22:34N 57°45' E 010°52'1312.9
2014-Dec-16 21:34N 57°36' E 011°10'1413.6
2014-Dec-16 20:33N 57°26' E 011°27'1414.2
2014-Dec-16 19:33N 57°12' E 011°36'1414.4
2014-Dec-16 18:33N 56°59' E 011°45'1414.1
2014-Dec-16 17:33N 56°45' E 011°53'13511.8
2014-Dec-16 06:08N 54°31' E 011°29'813.6
2014-Dec-16 05:33N 54°28' E 011°41'1613.3
2014-Dec-16 04:22N 54°26' E 012°08'6213.0
2014-Dec-15 23:33N 54°59' E 013°40'1313.0
2014-Dec-15 22:33N 55°03' E 014°01'1313.4
2014-Dec-15 21:33N 55°13' E 014°18'1313.1
2014-Dec-15 20:34N 55°23' E 014°32'1312.7
2014-Dec-15 19:34N 55°31' E 014°49'1313.0
2014-Dec-15 18:33N 55°37' E 015°10'35012.3
2014-Dec-14 14:04N 59°36' E 023°07'713.5
2014-Dec-14 13:33N 59°38' E 023°20'1313.3
2014-Dec-14 12:33N 59°41' E 023°45'1413.7
2014-Dec-14 11:31N 59°45' E 024°12'1313.7
2014-Dec-14 10:33N 59°48' E 024°38'5513.7
2014-Dec-14 06:33N 60°00' E 026°25'1313.6
2014-Dec-14 05:33N 60°00' E 026°51'1413.6
2014-Dec-14 04:30N 60°05' E 027°19'8612.4
2014-Dec-13 21:33N 59°53' E 030°09'2 2.1
2014-Dec-13 20:30N 59°53' E 030°13'0 0.0
2014-Dec-13 18:06N 59°53' E 030°13'0 0.0
2014-Dec-13 16:33N 59°53' E 030°13'0 0.0
2014-Dec-13 15:30N 59°53' E 030°13'0 0.0
2014-Dec-13 12:21N 59°53' E 030°13'0 0.0
2014-Dec-13 11:33N 59°53' E 030°13'0 0.0
2014-Dec-13 10:21N 59°53' E 030°13'1 1.3
2014-Dec-13 09:32N 59°53' E 030°11'0 0.0
2014-Dec-13 08:32N 59°53' E 030°11'0 0.0
2014-Dec-13 07:11N 59°53' E 030°11'0 0.0
2014-Dec-13 04:23N 59°53' E 030°11'0 0.0
2014-Dec-13 03:29N 59°53' E 030°11'0 0.0
2014-Dec-13 02:29N 59°53' E 030°11'0 0.0
2014-Dec-13 01:32N 59°53' E 030°11'0 0.0
2014-Dec-13 00:32N 59°53' E 030°11'0 0.0
2014-Dec-12 23:32N 59°53' E 030°11'0 0.0
2014-Dec-12 22:32N 59°53' E 030°11'0 0.0
2014-Dec-12 21:32N 59°53' E 030°11'0 0.0
2014-Dec-12 20:32N 59°53' E 030°11'0 0.0
2014-Dec-12 19:32N 59°53' E 030°11'0 0.0
2014-Dec-12 18:29N 59°53' E 030°11'0 0.0
2014-Dec-12 17:23N 59°53' E 030°11'0 0.0
2014-Dec-12 16:29N 59°53' E 030°11'0 0.0
2014-Dec-12 15:29N 59°53' E 030°11'0 0.1
2014-Dec-12 14:33N 59°53' E 030°11'8410.3
2014-Dec-12 06:24N 60°04' E 027°25'1312.3
2014-Dec-12 05:20N 59°58' E 027°02'912.1
2014-Dec-12 04:33N 59°59' E 026°44'1212.3
2014-Dec-12 03:33N 59°57' E 026°20'49 3.6
2014-Dec-11 14:07N 59°31' E 024°58'712.4
2014-Dec-11 13:34N 59°36' E 024°50'1313.2
2014-Dec-11 12:33N 59°40' E 024°24'1615.2
2014-Dec-11 11:30N 59°37' E 023°53'1515.9
2014-Dec-11 10:32N 59°32' E 023°25'33815.4
2014-Dec-10 12:33N 55°43' E 015°41'1615.6
2014-Dec-10 11:33N 55°35' E 015°17'1616.1
2014-Dec-10 10:33N 55°28' E 014°52'1616.2
2014-Dec-10 09:33N 55°18' E 014°30'1616.2
2014-Dec-10 08:33N 55°05' E 014°13'1515.1
2014-Dec-10 07:33N 54°57' E 013°49'1715.8
2014-Dec-10 06:29N 54°52' E 013°21'3515.9
2014-Dec-10 04:15N 54°38' E 012°25'1115.7
2014-Dec-10 03:33N 54°29' E 012°15'1614.8
2014-Dec-10 02:27N 54°25' E 011°47'14011.8
2014-Dec-09 14:33N 56°45' E 011°52'1615.5
2014-Dec-09 13:33N 57°00' E 011°43'1615.7
2014-Dec-09 12:34N 57°15' E 011°33'1515.1
2014-Dec-09 11:34N 57°29' E 011°22'1615.6
2014-Dec-09 10:33N 57°39' E 011°00'1515.3
2014-Dec-09 09:34N 57°48' E 010°37'1716.5
2014-Dec-09 08:33N 57°46' E 010°06'  
Track history (hours):
 
Tides and Currents Weather Stations Pressure Air Temp Water Temp Dewpoint Dewpoint Depression Visibility Wind Speed Wind Dir Waves Ship Positions

Fesco Vladimir

Last reported at 2014-Dec-19 08:29 UTC. Time now 2014-Dec-19 12:15 UTC.
Position N 52°09' E 003°41'.

Length 184 m; draft 9.1 m.

Type: Cargo ship. MMSI: 209777000.

Date/timePositionNaut miles runAvg speedWind from/ knotsBaromVisibWave heightAir tempDewpointWater temp
2014-Dec-19 08:29N 52°09' E 003°41'0 0.0
2014-Dec-19 07:32N 52°09' E 003°41'0 0.1
2014-Dec-19 06:26N 52°09' E 003°41'0 0.0
2014-Dec-19 05:23N 52°09' E 003°41'0 0.0
2014-Dec-19 00:20N 52°09' E 003°41'0 0.0
2014-Dec-18 21:05N 52°09' E 003°41'0 0.0
2014-Dec-18 15:32N 52°09' E 003°41'0 0.0
2014-Dec-18 14:23N 52°09' E 003°41'1 0.1
2014-Dec-18 07:33N 52°10' E 003°41'1111.2
2014-Dec-18 06:33N 52°20' E 003°48'1514.9
2014-Dec-18 05:33N 52°35' E 003°52'1514.9
2014-Dec-18 04:33N 52°49' E 003°57'1413.4
2014-Dec-18 03:33N 53°01' E 004°08'1313.4
2014-Dec-18 02:33N 53°10' E 004°25'1313.0
2014-Dec-18 01:33N 53°22' E 004°32'1312.8
2014-Dec-18 00:33N 53°34' E 004°39'1413.5
2014-Dec-17 23:33N 53°48' E 004°44'1414.1
2014-Dec-17 22:33N 54°01' E 004°51'1414.0
2014-Dec-17 21:33N 54°14' E 004°60'1414.3
2014-Dec-17 20:33N 54°26' E 005°12'1414.1
2014-Dec-17 19:33N 54°39' E 005°23'1413.9
2014-Dec-17 18:33N 54°51' E 005°36'1614.2
2014-Dec-17 17:25N 55°04' E 005°50'2814.2
2014-Dec-17 15:26N 55°29' E 006°15'13413.2
2014-Dec-17 05:19N 57°19' E 008°33'1412.7
2014-Dec-17 04:15N 57°27' E 008°52'5212.7
2014-Dec-17 00:10N 57°48' E 010°21'711.4
2014-Dec-16 23:33N 57°48' E 010°34'1010.3
2014-Dec-16 22:34N 57°45' E 010°52'1312.9
2014-Dec-16 21:34N 57°36' E 011°10'1413.6
2014-Dec-16 20:33N 57°26' E 011°27'1414.2
2014-Dec-16 19:33N 57°12' E 011°36'1414.4
2014-Dec-16 18:33N 56°59' E 011°45'1414.1
2014-Dec-16 17:33N 56°45' E 011°53'13511.8
2014-Dec-16 06:08N 54°31' E 011°29'813.6
2014-Dec-16 05:33N 54°28' E 011°41'1613.3
2014-Dec-16 04:22N 54°26' E 012°08'6213.0
2014-Dec-15 23:33N 54°59' E 013°40'1313.0
2014-Dec-15 22:33N 55°03' E 014°01'1313.4
2014-Dec-15 21:33N 55°13' E 014°18'1313.1
2014-Dec-15 20:34N 55°23' E 014°32'1312.7
2014-Dec-15 19:34N 55°31' E 014°49'1313.0
2014-Dec-15 18:33N 55°37' E 015°10'35012.3
2014-Dec-14 14:04N 59°36' E 023°07'713.5
2014-Dec-14 13:33N 59°38' E 023°20'1313.3
2014-Dec-14 12:33N 59°41' E 023°45'1413.7
2014-Dec-14 11:31N 59°45' E 024°12'1313.7
2014-Dec-14 10:33N 59°48' E 024°38'5513.7
2014-Dec-14 06:33N 60°00' E 026°25'1313.6
2014-Dec-14 05:33N 60°00' E 026°51'1413.6
2014-Dec-14 04:30N 60°05' E 027°19'8612.4
2014-Dec-13 21:33N 59°53' E 030°09'2 2.1
2014-Dec-13 20:30N 59°53' E 030°13'0 0.0
2014-Dec-13 18:06N 59°53' E 030°13'0 0.0
2014-Dec-13 16:33N 59°53' E 030°13'0 0.0
2014-Dec-13 15:30N 59°53' E 030°13'0 0.0
2014-Dec-13 12:21N 59°53' E 030°13'0 0.0
2014-Dec-13 11:33N 59°53' E 030°13'0 0.0
2014-Dec-13 10:21N 59°53' E 030°13'1 1.3
2014-Dec-13 09:32N 59°53' E 030°11'0 0.0
2014-Dec-13 08:32N 59°53' E 030°11'0 0.0
2014-Dec-13 07:11N 59°53' E 030°11'0 0.0
2014-Dec-13 04:23N 59°53' E 030°11'0 0.0
2014-Dec-13 03:29N 59°53' E 030°11'0 0.0
2014-Dec-13 02:29N 59°53' E 030°11'0 0.0
2014-Dec-13 01:32N 59°53' E 030°11'0 0.0
2014-Dec-13 00:32N 59°53' E 030°11'0 0.0
2014-Dec-12 23:32N 59°53' E 030°11'0 0.0
2014-Dec-12 22:32N 59°53' E 030°11'0 0.0
2014-Dec-12 21:32N 59°53' E 030°11'0 0.0
2014-Dec-12 20:32N 59°53' E 030°11'0 0.0
2014-Dec-12 19:32N 59°53' E 030°11'0 0.0
2014-Dec-12 18:29N 59°53' E 030°11'0 0.0
2014-Dec-12 17:23N 59°53' E 030°11'0 0.0
2014-Dec-12 16:29N 59°53' E 030°11'0 0.0
2014-Dec-12 15:29N 59°53' E 030°11'0 0.1
2014-Dec-12 14:33N 59°53' E 030°11'8410.3
2014-Dec-12 06:24N 60°04' E 027°25'1312.3
2014-Dec-12 05:20N 59°58' E 027°02'912.1
2014-Dec-12 04:33N 59°59' E 026°44'1212.3
2014-Dec-12 03:33N 59°57' E 026°20'49 3.6
2014-Dec-11 14:07N 59°31' E 024°58'712.4
2014-Dec-11 13:34N 59°36' E 024°50'1313.2
2014-Dec-11 12:33N 59°40' E 024°24'1615.2
2014-Dec-11 11:30N 59°37' E 023°53'1515.9
2014-Dec-11 10:32N 59°32' E 023°25'33815.4
2014-Dec-10 12:33N 55°43' E 015°41'1615.6
2014-Dec-10 11:33N 55°35' E 015°17'1616.1
2014-Dec-10 10:33N 55°28' E 014°52'1616.2
2014-Dec-10 09:33N 55°18' E 014°30'1616.2
2014-Dec-10 08:33N 55°05' E 014°13'1515.1
2014-Dec-10 07:33N 54°57' E 013°49'1715.8
2014-Dec-10 06:29N 54°52' E 013°21'3515.9
2014-Dec-10 04:15N 54°38' E 012°25'1115.7
2014-Dec-10 03:33N 54°29' E 012°15'1614.8
2014-Dec-10 02:27N 54°25' E 011°47'14011.8
2014-Dec-09 14:33N 56°45' E 011°52'1615.5
2014-Dec-09 13:33N 57°00' E 011°43'1615.7
2014-Dec-09 12:34N 57°15' E 011°33'1515.1
2014-Dec-09 11:34N 57°29' E 011°22'1615.6
2014-Dec-09 10:33N 57°39' E 011°00'1515.3
2014-Dec-09 09:34N 57°48' E 010°37'1716.5
2014-Dec-09 08:33N 57°46' E 010°06'  

Dump ship's entire track history